sensor_id;sensor_type;location;lat;lon;timestamp;P1;durP1;ratioP1;P2;durP2;ratioP2
24279;SDS011;12395;42.808;23.408;2023-12-22T00:00:26;12.10;;;6.13;;
24279;SDS011;12395;42.808;23.408;2023-12-22T00:02:52;14.43;;;6.37;;
24279;SDS011;12395;42.808;23.408;2023-12-22T00:05:17;15.90;;;6.47;;
24279;SDS011;12395;42.808;23.408;2023-12-22T00:07:42;14.53;;;6.83;;
24279;SDS011;12395;42.808;23.408;2023-12-22T00:10:08;16.17;;;6.50;;
24279;SDS011;12395;42.808;23.408;2023-12-22T00:12:34;14.37;;;6.27;;
24279;SDS011;12395;42.808;23.408;2023-12-22T00:14:59;12.97;;;6.13;;
24279;SDS011;12395;42.808;23.408;2023-12-22T00:17:25;16.27;;;6.87;;
24279;SDS011;12395;42.808;23.408;2023-12-22T00:19:50;17.93;;;8.20;;
24279;SDS011;12395;42.808;23.408;2023-12-22T00:22:16;15.50;;;6.73;;
24279;SDS011;12395;42.808;23.408;2023-12-22T00:24:41;16.53;;;7.63;;
24279;SDS011;12395;42.808;23.408;2023-12-22T00:27:06;14.97;;;7.03;;
24279;SDS011;12395;42.808;23.408;2023-12-22T00:29:32;19.03;;;7.67;;
24279;SDS011;12395;42.808;23.408;2023-12-22T00:32:00;23.00;;;10.03;;
24279;SDS011;12395;42.808;23.408;2023-12-22T00:34:26;23.90;;;9.60;;
24279;SDS011;12395;42.808;23.408;2023-12-22T00:36:51;24.60;;;10.73;;
24279;SDS011;12395;42.808;23.408;2023-12-22T00:39:17;22.00;;;9.10;;
24279;SDS011;12395;42.808;23.408;2023-12-22T00:41:42;19.80;;;9.50;;
24279;SDS011;12395;42.808;23.408;2023-12-22T00:44:08;22.57;;;9.80;;
24279;SDS011;12395;42.808;23.408;2023-12-22T00:46:33;21.30;;;9.73;;
24279;SDS011;12395;42.808;23.408;2023-12-22T00:48:58;20.90;;;9.77;;
24279;SDS011;12395;42.808;23.408;2023-12-22T00:51:24;20.67;;;8.23;;
24279;SDS011;12395;42.808;23.408;2023-12-22T00:53:50;18.40;;;7.80;;
24279;SDS011;12395;42.808;23.408;2023-12-22T00:56:16;22.53;;;8.97;;
24279;SDS011;12395;42.808;23.408;2023-12-22T00:58:41;19.07;;;8.70;;
24279;SDS011;12395;42.808;23.408;2023-12-22T01:01:06;19.07;;;7.83;;
24279;SDS011;12395;42.808;23.408;2023-12-22T01:03:32;17.30;;;7.47;;
24279;SDS011;12395;42.808;23.408;2023-12-22T01:05:57;15.00;;;7.13;;
24279;SDS011;12395;42.808;23.408;2023-12-22T01:08:22;15.27;;;7.20;;
24279;SDS011;12395;42.808;23.408;2023-12-22T01:10:48;20.10;;;7.43;;
24279;SDS011;12395;42.808;23.408;2023-12-22T01:13:13;24.00;;;8.87;;
24279;SDS011;12395;42.808;23.408;2023-12-22T01:15:39;23.30;;;9.47;;
24279;SDS011;12395;42.808;23.408;2023-12-22T01:18:05;21.30;;;10.13;;
24279;SDS011;12395;42.808;23.408;2023-12-22T01:20:30;14.17;;;6.13;;
24279;SDS011;12395;42.808;23.408;2023-12-22T01:22:55;15.73;;;6.73;;
24279;SDS011;12395;42.808;23.408;2023-12-22T01:25:21;15.43;;;6.63;;
24279;SDS011;12395;42.808;23.408;2023-12-22T01:27:46;13.23;;;6.30;;
24279;SDS011;12395;42.808;23.408;2023-12-22T01:30:13;17.03;;;7.33;;
24279;SDS011;12395;42.808;23.408;2023-12-22T01:32:38;20.33;;;9.80;;
24279;SDS011;12395;42.808;23.408;2023-12-22T01:35:04;20.07;;;8.50;;
24279;SDS011;12395;42.808;23.408;2023-12-22T01:37:34;21.17;;;8.40;;
24279;SDS011;12395;42.808;23.408;2023-12-22T01:40:00;20.00;;;8.53;;
24279;SDS011;12395;42.808;23.408;2023-12-22T01:42:26;20.73;;;9.33;;
24279;SDS011;12395;42.808;23.408;2023-12-22T01:44:51;22.57;;;10.03;;
24279;SDS011;12395;42.808;23.408;2023-12-22T01:47:16;16.77;;;7.37;;
24279;SDS011;12395;42.808;23.408;2023-12-22T01:49:42;19.27;;;8.43;;
24279;SDS011;12395;42.808;23.408;2023-12-22T01:52:07;19.90;;;8.63;;
24279;SDS011;12395;42.808;23.408;2023-12-22T01:54:33;19.07;;;8.33;;
24279;SDS011;12395;42.808;23.408;2023-12-22T01:56:59;20.10;;;8.83;;
24279;SDS011;12395;42.808;23.408;2023-12-22T01:59:25;20.40;;;9.73;;
24279;SDS011;12395;42.808;23.408;2023-12-22T02:01:51;17.80;;;9.20;;
24279;SDS011;12395;42.808;23.408;2023-12-22T02:04:18;19.00;;;9.50;;
24279;SDS011;12395;42.808;23.408;2023-12-22T02:06:44;26.70;;;11.07;;
24279;SDS011;12395;42.808;23.408;2023-12-22T02:09:09;24.03;;;10.13;;
24279;SDS011;12395;42.808;23.408;2023-12-22T02:11:36;26.50;;;12.07;;
24279;SDS011;12395;42.808;23.408;2023-12-22T02:14:03;25.07;;;11.23;;
24279;SDS011;12395;42.808;23.408;2023-12-22T02:16:52;24.70;;;10.20;;
24279;SDS011;12395;42.808;23.408;2023-12-22T02:22:04;18.93;;;9.33;;
24279;SDS011;12395;42.808;23.408;2023-12-22T02:24:30;19.35;;;9.18;;
24279;SDS011;12395;42.808;23.408;2023-12-22T02:26:56;22.93;;;10.40;;
24279;SDS011;12395;42.808;23.408;2023-12-22T02:29:46;20.40;;;9.30;;
24279;SDS011;12395;42.808;23.408;2023-12-22T02:32:22;23.13;;;9.60;;
24279;SDS011;12395;42.808;23.408;2023-12-22T02:34:53;22.90;;;9.17;;
24279;SDS011;12395;42.808;23.408;2023-12-22T02:37:21;18.33;;;8.87;;
24279;SDS011;12395;42.808;23.408;2023-12-22T02:39:48;21.70;;;9.32;;
24279;SDS011;12395;42.808;23.408;2023-12-22T02:42:15;20.27;;;9.45;;
24279;SDS011;12395;42.808;23.408;2023-12-22T02:44:42;19.40;;;9.23;;
24279;SDS011;12395;42.808;23.408;2023-12-22T02:47:07;21.23;;;8.90;;
24279;SDS011;12395;42.808;23.408;2023-12-22T02:49:33;22.60;;;9.33;;
24279;SDS011;12395;42.808;23.408;2023-12-22T02:51:58;19.07;;;9.03;;
24279;SDS011;12395;42.808;23.408;2023-12-22T02:54:23;18.80;;;8.47;;
24279;SDS011;12395;42.808;23.408;2023-12-22T02:56:49;19.83;;;8.47;;
24279;SDS011;12395;42.808;23.408;2023-12-22T02:59:14;18.30;;;8.93;;
24279;SDS011;12395;42.808;23.408;2023-12-22T03:01:40;19.80;;;9.50;;
24279;SDS011;12395;42.808;23.408;2023-12-22T03:04:05;19.17;;;8.67;;
24279;SDS011;12395;42.808;23.408;2023-12-22T03:06:30;18.03;;;8.70;;
24279;SDS011;12395;42.808;23.408;2023-12-22T03:08:56;18.50;;;8.40;;
24279;SDS011;12395;42.808;23.408;2023-12-22T03:11:21;18.37;;;7.97;;
24279;SDS011;12395;42.808;23.408;2023-12-22T03:13:46;16.47;;;8.10;;
24279;SDS011;12395;42.808;23.408;2023-12-22T03:16:12;18.57;;;8.30;;
24279;SDS011;12395;42.808;23.408;2023-12-22T03:18:38;13.13;;;6.97;;
24279;SDS011;12395;42.808;23.408;2023-12-22T03:21:04;17.75;;;7.65;;
24279;SDS011;12395;42.808;23.408;2023-12-22T03:23:30;16.10;;;7.53;;
24279;SDS011;12395;42.808;23.408;2023-12-22T03:25:55;15.67;;;7.03;;
24279;SDS011;12395;42.808;23.408;2023-12-22T03:28:21;14.37;;;6.70;;
24279;SDS011;12395;42.808;23.408;2023-12-22T03:30:46;15.43;;;7.07;;
24279;SDS011;12395;42.808;23.408;2023-12-22T03:33:11;12.47;;;5.90;;
24279;SDS011;12395;42.808;23.408;2023-12-22T03:35:36;11.83;;;5.20;;
24279;SDS011;12395;42.808;23.408;2023-12-22T03:38:02;10.40;;;4.90;;
24279;SDS011;12395;42.808;23.408;2023-12-22T03:40:28;10.87;;;4.53;;
24279;SDS011;12395;42.808;23.408;2023-12-22T03:42:54;8.10;;;4.13;;
24279;SDS011;12395;42.808;23.408;2023-12-22T03:45:20;8.77;;;4.27;;
24279;SDS011;12395;42.808;23.408;2023-12-22T03:47:45;9.07;;;4.13;;
24279;SDS011;12395;42.808;23.408;2023-12-22T03:50:10;7.60;;;4.10;;
24279;SDS011;12395;42.808;23.408;2023-12-22T03:52:36;7.60;;;3.70;;
24279;SDS011;12395;42.808;23.408;2023-12-22T03:55:01;7.93;;;3.57;;
24279;SDS011;12395;42.808;23.408;2023-12-22T03:57:27;8.70;;;3.80;;
24279;SDS011;12395;42.808;23.408;2023-12-22T03:59:53;8.00;;;3.50;;
24279;SDS011;12395;42.808;23.408;2023-12-22T04:02:18;5.90;;;3.27;;
24279;SDS011;12395;42.808;23.408;2023-12-22T04:04:43;6.37;;;3.20;;
24279;SDS011;12395;42.808;23.408;2023-12-22T04:07:09;6.93;;;3.40;;
24279;SDS011;12395;42.808;23.408;2023-12-22T04:09:36;7.17;;;3.33;;
24279;SDS011;12395;42.808;23.408;2023-12-22T04:12:02;7.20;;;2.93;;
24279;SDS011;12395;42.808;23.408;2023-12-22T04:14:28;7.70;;;3.43;;
24279;SDS011;12395;42.808;23.408;2023-12-22T04:16:53;7.40;;;3.17;;
24279;SDS011;12395;42.808;23.408;2023-12-22T04:19:19;7.07;;;3.30;;
24279;SDS011;12395;42.808;23.408;2023-12-22T04:21:44;5.30;;;2.80;;
24279;SDS011;12395;42.808;23.408;2023-12-22T04:24:09;9.80;;;3.43;;
24279;SDS011;12395;42.808;23.408;2023-12-22T04:26:35;31.40;;;14.07;;
24279;SDS011;12395;42.808;23.408;2023-12-22T04:29:01;29.60;;;15.10;;
24279;SDS011;12395;42.808;23.408;2023-12-22T04:31:26;30.83;;;14.80;;
24279;SDS011;12395;42.808;23.408;2023-12-22T04:33:51;29.67;;;14.87;;
24279;SDS011;12395;42.808;23.408;2023-12-22T04:36:17;29.90;;;15.57;;
24279;SDS011;12395;42.808;23.408;2023-12-22T04:38:42;27.77;;;14.80;;
24279;SDS011;12395;42.808;23.408;2023-12-22T04:41:08;27.10;;;14.87;;
24279;SDS011;12395;42.808;23.408;2023-12-22T04:43:33;28.60;;;14.57;;
24279;SDS011;12395;42.808;23.408;2023-12-22T04:45:58;31.93;;;15.77;;
24279;SDS011;12395;42.808;23.408;2023-12-22T04:48:24;31.23;;;15.30;;
24279;SDS011;12395;42.808;23.408;2023-12-22T04:50:49;32.90;;;15.53;;
24279;SDS011;12395;42.808;23.408;2023-12-22T04:53:14;33.03;;;15.30;;
24279;SDS011;12395;42.808;23.408;2023-12-22T04:55:40;32.30;;;14.73;;
24279;SDS011;12395;42.808;23.408;2023-12-22T04:58:05;31.60;;;15.07;;
24279;SDS011;12395;42.808;23.408;2023-12-22T05:00:31;25.53;;;13.20;;
24279;SDS011;12395;42.808;23.408;2023-12-22T05:02:56;27.83;;;14.33;;
24279;SDS011;12395;42.808;23.408;2023-12-22T05:05:21;30.10;;;14.73;;
24279;SDS011;12395;42.808;23.408;2023-12-22T05:07:47;31.17;;;14.93;;
24279;SDS011;12395;42.808;23.408;2023-12-22T05:10:12;30.73;;;15.50;;
24279;SDS011;12395;42.808;23.408;2023-12-22T05:12:37;33.90;;;16.97;;
24279;SDS011;12395;42.808;23.408;2023-12-22T05:15:03;40.27;;;19.47;;
24279;SDS011;12395;42.808;23.408;2023-12-22T05:17:29;40.17;;;18.17;;
24279;SDS011;12395;42.808;23.408;2023-12-22T05:19:54;29.83;;;15.90;;
24279;SDS011;12395;42.808;23.408;2023-12-22T05:22:19;28.87;;;15.47;;
24279;SDS011;12395;42.808;23.408;2023-12-22T05:24:45;30.60;;;14.27;;
24279;SDS011;12395;42.808;23.408;2023-12-22T05:27:11;23.47;;;11.07;;
24279;SDS011;12395;42.808;23.408;2023-12-22T05:29:36;16.30;;;8.97;;
24279;SDS011;12395;42.808;23.408;2023-12-22T05:32:02;19.90;;;9.63;;
24279;SDS011;12395;42.808;23.408;2023-12-22T05:34:27;20.63;;;8.00;;
24279;SDS011;12395;42.808;23.408;2023-12-22T05:36:52;20.60;;;9.27;;
24279;SDS011;12395;42.808;23.408;2023-12-22T05:39:18;9.03;;;4.57;;
24279;SDS011;12395;42.808;23.408;2023-12-22T05:41:43;9.23;;;3.80;;
24279;SDS011;12395;42.808;23.408;2023-12-22T05:44:08;8.23;;;3.53;;
24279;SDS011;12395;42.808;23.408;2023-12-22T05:46:37;7.13;;;3.10;;
24279;SDS011;12395;42.808;23.408;2023-12-22T05:49:05;6.47;;;3.40;;
24279;SDS011;12395;42.808;23.408;2023-12-22T05:51:38;6.93;;;3.37;;
24279;SDS011;12395;42.808;23.408;2023-12-22T05:54:04;8.27;;;3.03;;
24279;SDS011;12395;42.808;23.408;2023-12-22T05:56:30;6.77;;;3.10;;
24279;SDS011;12395;42.808;23.408;2023-12-22T05:58:56;5.50;;;2.87;;
24279;SDS011;12395;42.808;23.408;2023-12-22T06:01:21;7.03;;;3.17;;
24279;SDS011;12395;42.808;23.408;2023-12-22T06:03:46;6.50;;;3.37;;
24279;SDS011;12395;42.808;23.408;2023-12-22T06:06:12;6.93;;;3.20;;
24279;SDS011;12395;42.808;23.408;2023-12-22T06:08:38;7.37;;;3.10;;
24279;SDS011;12395;42.808;23.408;2023-12-22T06:11:03;6.40;;;3.30;;
24279;SDS011;12395;42.808;23.408;2023-12-22T06:13:30;7.17;;;3.20;;
24279;SDS011;12395;42.808;23.408;2023-12-22T06:15:55;6.95;;;3.40;;
24279;SDS011;12395;42.808;23.408;2023-12-22T06:18:20;6.77;;;3.30;;
24279;SDS011;12395;42.808;23.408;2023-12-22T06:20:46;5.23;;;3.00;;
24279;SDS011;12395;42.808;23.408;2023-12-22T06:23:11;5.93;;;3.10;;
24279;SDS011;12395;42.808;23.408;2023-12-22T06:25:36;4.83;;;2.67;;
24279;SDS011;12395;42.808;23.408;2023-12-22T06:28:02;6.23;;;3.00;;
24279;SDS011;12395;42.808;23.408;2023-12-22T06:30:28;8.43;;;3.50;;
24279;SDS011;12395;42.808;23.408;2023-12-22T06:32:53;6.27;;;2.90;;
24279;SDS011;12395;42.808;23.408;2023-12-22T06:35:19;5.53;;;3.07;;
24279;SDS011;12395;42.808;23.408;2023-12-22T06:37:48;5.07;;;3.00;;
24279;SDS011;12395;42.808;23.408;2023-12-22T06:40:14;7.10;;;2.77;;
24279;SDS011;12395;42.808;23.408;2023-12-22T06:42:40;4.85;;;2.80;;
24279;SDS011;12395;42.808;23.408;2023-12-22T06:45:05;5.57;;;2.80;;
24279;SDS011;12395;42.808;23.408;2023-12-22T06:47:31;5.22;;;2.65;;
24279;SDS011;12395;42.808;23.408;2023-12-22T06:49:56;5.35;;;3.10;;
24279;SDS011;12395;42.808;23.408;2023-12-22T06:52:22;6.10;;;3.10;;
24279;SDS011;12395;42.808;23.408;2023-12-22T06:54:47;5.67;;;3.10;;
24279;SDS011;12395;42.808;23.408;2023-12-22T06:57:12;5.53;;;3.07;;
24279;SDS011;12395;42.808;23.408;2023-12-22T06:59:38;5.43;;;3.00;;
24279;SDS011;12395;42.808;23.408;2023-12-22T07:02:04;6.63;;;3.80;;
24279;SDS011;12395;42.808;23.408;2023-12-22T07:07:33;5.45;;;2.90;;
24279;SDS011;12395;42.808;23.408;2023-12-22T07:09:58;7.85;;;3.13;;
24279;SDS011;12395;42.808;23.408;2023-12-22T07:12:23;6.28;;;3.00;;
24279;SDS011;12395;42.808;23.408;2023-12-22T07:14:49;5.85;;;3.25;;
24279;SDS011;12395;42.808;23.408;2023-12-22T07:17:14;5.45;;;3.00;;
24279;SDS011;12395;42.808;23.408;2023-12-22T07:19:40;5.90;;;3.15;;
24279;SDS011;12395;42.808;23.408;2023-12-22T07:22:06;6.38;;;3.08;;
24279;SDS011;12395;42.808;23.408;2023-12-22T07:24:31;5.18;;;2.85;;
24279;SDS011;12395;42.808;23.408;2023-12-22T07:26:56;7.13;;;3.38;;
24279;SDS011;12395;42.808;23.408;2023-12-22T07:29:22;5.95;;;3.20;;
24279;SDS011;12395;42.808;23.408;2023-12-22T07:31:47;5.97;;;3.05;;
24279;SDS011;12395;42.808;23.408;2023-12-22T07:34:13;7.00;;;3.30;;
24279;SDS011;12395;42.808;23.408;2023-12-22T07:36:39;5.35;;;2.95;;
24279;SDS011;12395;42.808;23.408;2023-12-22T07:39:05;5.07;;;3.17;;
24279;SDS011;12395;42.808;23.408;2023-12-22T07:41:31;6.03;;;3.33;;
24279;SDS011;12395;42.808;23.408;2023-12-22T07:43:57;6.35;;;3.53;;
24279;SDS011;12395;42.808;23.408;2023-12-22T07:46:22;6.68;;;3.53;;
24279;SDS011;12395;42.808;23.408;2023-12-22T07:48:48;5.88;;;3.60;;
24279;SDS011;12395;42.808;23.408;2023-12-22T07:51:14;43.67;;;22.63;;
24279;SDS011;12395;42.808;23.408;2023-12-22T07:53:39;19.50;;;10.32;;
24279;SDS011;12395;42.808;23.408;2023-12-22T07:56:05;13.20;;;6.88;;
24279;SDS011;12395;42.808;23.408;2023-12-22T07:58:31;9.43;;;5.10;;
24279;SDS011;12395;42.808;23.408;2023-12-22T08:00:57;6.65;;;3.70;;
24279;SDS011;12395;42.808;23.408;2023-12-22T08:03:23;9.95;;;3.65;;
24279;SDS011;12395;42.808;23.408;2023-12-22T08:05:49;7.30;;;3.10;;
24279;SDS011;12395;42.808;23.408;2023-12-22T08:08:14;7.40;;;3.33;;
24279;SDS011;12395;42.808;23.408;2023-12-22T08:10:40;6.38;;;3.28;;
24279;SDS011;12395;42.808;23.408;2023-12-22T08:13:06;6.72;;;3.75;;
24279;SDS011;12395;42.808;23.408;2023-12-22T08:15:31;7.55;;;3.72;;
24279;SDS011;12395;42.808;23.408;2023-12-22T08:17:57;7.00;;;3.55;;
24279;SDS011;12395;42.808;23.408;2023-12-22T08:20:22;6.50;;;3.40;;
24279;SDS011;12395;42.808;23.408;2023-12-22T08:22:48;7.87;;;3.80;;
24279;SDS011;12395;42.808;23.408;2023-12-22T08:27:44;8.18;;;3.60;;
24279;SDS011;12395;42.808;23.408;2023-12-22T08:30:10;7.93;;;3.88;;
24279;SDS011;12395;42.808;23.408;2023-12-22T08:32:36;7.75;;;3.80;;
24279;SDS011;12395;42.808;23.408;2023-12-22T08:35:01;6.05;;;3.60;;
24279;SDS011;12395;42.808;23.408;2023-12-22T08:37:28;7.03;;;3.55;;
24279;SDS011;12395;42.808;23.408;2023-12-22T08:39:53;7.20;;;3.78;;
24279;SDS011;12395;42.808;23.408;2023-12-22T08:42:18;7.13;;;3.40;;
24279;SDS011;12395;42.808;23.408;2023-12-22T08:44:44;7.68;;;3.33;;
24279;SDS011;12395;42.808;23.408;2023-12-22T08:47:09;8.95;;;3.75;;
24279;SDS011;12395;42.808;23.408;2023-12-22T08:49:35;6.85;;;3.42;;
24279;SDS011;12395;42.808;23.408;2023-12-22T08:52:00;7.68;;;3.90;;
24279;SDS011;12395;42.808;23.408;2023-12-22T08:54:28;8.10;;;4.55;;
24279;SDS011;12395;42.808;23.408;2023-12-22T08:56:54;7.13;;;3.70;;
24279;SDS011;12395;42.808;23.408;2023-12-22T08:59:19;7.18;;;3.72;;
24279;SDS011;12395;42.808;23.408;2023-12-22T09:01:45;6.90;;;3.67;;
24279;SDS011;12395;42.808;23.408;2023-12-22T09:04:10;7.30;;;3.58;;
24279;SDS011;12395;42.808;23.408;2023-12-22T09:06:38;9.10;;;3.50;;
24279;SDS011;12395;42.808;23.408;2023-12-22T09:09:04;8.48;;;3.80;;
24279;SDS011;12395;42.808;23.408;2023-12-22T09:11:30;6.55;;;3.47;;
24279;SDS011;12395;42.808;23.408;2023-12-22T09:13:55;7.13;;;3.75;;
24279;SDS011;12395;42.808;23.408;2023-12-22T09:16:21;7.30;;;3.17;;
24279;SDS011;12395;42.808;23.408;2023-12-22T09:18:47;6.40;;;3.58;;
24279;SDS011;12395;42.808;23.408;2023-12-22T09:21:13;8.20;;;3.92;;
24279;SDS011;12395;42.808;23.408;2023-12-22T09:23:39;6.80;;;3.45;;
24279;SDS011;12395;42.808;23.408;2023-12-22T09:26:04;8.48;;;3.50;;
24279;SDS011;12395;42.808;23.408;2023-12-22T09:28:30;10.67;;;3.23;;
24279;SDS011;12395;42.808;23.408;2023-12-22T09:30:55;5.75;;;3.40;;
24279;SDS011;12395;42.808;23.408;2023-12-22T09:33:21;7.35;;;3.88;;
24279;SDS011;12395;42.808;23.408;2023-12-22T09:35:47;8.38;;;3.75;;
24279;SDS011;12395;42.808;23.408;2023-12-22T09:38:13;7.30;;;4.05;;
24279;SDS011;12395;42.808;23.408;2023-12-22T09:41:32;6.80;;;3.88;;
24279;SDS011;12395;42.808;23.408;2023-12-22T09:43:57;7.90;;;3.90;;
24279;SDS011;12395;42.808;23.408;2023-12-22T09:46:25;6.65;;;3.95;;
24279;SDS011;12395;42.808;23.408;2023-12-22T09:48:51;10.10;;;4.70;;
24279;SDS011;12395;42.808;23.408;2023-12-22T09:54:16;9.45;;;4.80;;
24279;SDS011;12395;42.808;23.408;2023-12-22T09:56:43;9.60;;;5.40;;
24279;SDS011;12395;42.808;23.408;2023-12-22T09:59:13;9.70;;;5.80;;
24279;SDS011;12395;42.808;23.408;2023-12-22T10:01:45;11.75;;;6.65;;
24279;SDS011;12395;42.808;23.408;2023-12-22T10:04:15;10.60;;;5.70;;
24279;SDS011;12395;42.808;23.408;2023-12-22T10:06:41;11.43;;;6.00;;
24279;SDS011;12395;42.808;23.408;2023-12-22T10:09:06;12.27;;;6.22;;
24279;SDS011;12395;42.808;23.408;2023-12-22T10:11:33;11.35;;;5.95;;
24279;SDS011;12395;42.808;23.408;2023-12-22T10:14:01;12.50;;;5.72;;
24279;SDS011;12395;42.808;23.408;2023-12-22T10:16:28;11.63;;;7.07;;
24279;SDS011;12395;42.808;23.408;2023-12-22T10:20:18;10.25;;;5.30;;
24279;SDS011;12395;42.808;23.408;2023-12-22T10:25:15;12.00;;;5.38;;
24279;SDS011;12395;42.808;23.408;2023-12-22T10:27:44;10.80;;;5.30;;
24279;SDS011;12395;42.808;23.408;2023-12-22T10:30:10;11.35;;;5.93;;
24279;SDS011;12395;42.808;23.408;2023-12-22T10:32:41;11.07;;;6.18;;
24279;SDS011;12395;42.808;23.408;2023-12-22T10:35:07;17.40;;;9.52;;
24279;SDS011;12395;42.808;23.408;2023-12-22T10:37:33;22.23;;;11.38;;
24279;SDS011;12395;42.808;23.408;2023-12-22T10:39:59;17.90;;;8.98;;
24279;SDS011;12395;42.808;23.408;2023-12-22T10:42:24;12.18;;;5.85;;
24279;SDS011;12395;42.808;23.408;2023-12-22T10:44:50;11.88;;;5.35;;
24279;SDS011;12395;42.808;23.408;2023-12-22T10:47:18;10.95;;;5.80;;
24279;SDS011;12395;42.808;23.408;2023-12-22T10:49:44;11.63;;;5.18;;
24279;SDS011;12395;42.808;23.408;2023-12-22T10:52:15;9.70;;;5.43;;
24279;SDS011;12395;42.808;23.408;2023-12-22T10:54:42;9.07;;;5.15;;
24279;SDS011;12395;42.808;23.408;2023-12-22T10:57:07;7.32;;;3.90;;
24279;SDS011;12395;42.808;23.408;2023-12-22T10:59:35;7.10;;;2.83;;
24279;SDS011;12395;42.808;23.408;2023-12-22T11:02:05;5.07;;;3.30;;
24279;SDS011;12395;42.808;23.408;2023-12-22T11:04:35;5.35;;;3.15;;
24279;SDS011;12395;42.808;23.408;2023-12-22T11:07:03;6.97;;;3.65;;
24279;SDS011;12395;42.808;23.408;2023-12-22T11:09:31;5.97;;;3.05;;
24279;SDS011;12395;42.808;23.408;2023-12-22T11:12:00;4.88;;;2.85;;
24279;SDS011;12395;42.808;23.408;2023-12-22T11:14:26;5.28;;;2.30;;
24279;SDS011;12395;42.808;23.408;2023-12-22T11:16:51;4.80;;;2.60;;
24279;SDS011;12395;42.808;23.408;2023-12-22T11:19:19;2.67;;;2.10;;
24279;SDS011;12395;42.808;23.408;2023-12-22T11:21:45;3.13;;;2.30;;
24279;SDS011;12395;42.808;23.408;2023-12-22T11:24:13;4.50;;;2.20;;
24279;SDS011;12395;42.808;23.408;2023-12-22T11:26:41;5.07;;;2.30;;
24279;SDS011;12395;42.808;23.408;2023-12-22T11:29:10;4.72;;;2.50;;
24279;SDS011;12395;42.808;23.408;2023-12-22T11:31:36;4.55;;;2.60;;
24279;SDS011;12395;42.808;23.408;2023-12-22T11:34:02;6.15;;;2.58;;
24279;SDS011;12395;42.808;23.408;2023-12-22T11:36:30;5.72;;;2.85;;
24279;SDS011;12395;42.808;23.408;2023-12-22T11:38:56;4.65;;;2.75;;
24279;SDS011;12395;42.808;23.408;2023-12-22T11:41:24;4.65;;;2.60;;
24279;SDS011;12395;42.808;23.408;2023-12-22T11:43:52;5.57;;;3.20;;
24279;SDS011;12395;42.808;23.408;2023-12-22T11:47:35;5.50;;;2.92;;
24279;SDS011;12395;42.808;23.408;2023-12-22T11:50:00;4.53;;;2.28;;
24279;SDS011;12395;42.808;23.408;2023-12-22T11:52:26;4.18;;;2.08;;
24279;SDS011;12395;42.808;23.408;2023-12-22T11:54:53;3.35;;;1.90;;
24279;SDS011;12395;42.808;23.408;2023-12-22T11:59:55;3.15;;;1.70;;
24279;SDS011;12395;42.808;23.408;2023-12-22T12:02:21;3.90;;;2.00;;
24279;SDS011;12395;42.808;23.408;2023-12-22T12:04:47;3.45;;;2.10;;
24279;SDS011;12395;42.808;23.408;2023-12-22T12:07:36;3.85;;;2.00;;
24279;SDS011;12395;42.808;23.408;2023-12-22T12:10:59;3.20;;;1.90;;
24279;SDS011;12395;42.808;23.408;2023-12-22T12:13:10;2.65;;;1.90;;
24279;SDS011;12395;42.808;23.408;2023-12-22T12:15:37;4.32;;;2.17;;
24279;SDS011;12395;42.808;23.408;2023-12-22T12:18:03;4.55;;;2.42;;
24279;SDS011;12395;42.808;23.408;2023-12-22T12:20:31;4.75;;;2.22;;
24279;SDS011;12395;42.808;23.408;2023-12-22T12:22:57;3.50;;;2.38;;
24279;SDS011;12395;42.808;23.408;2023-12-22T12:25:23;4.28;;;2.30;;
24279;SDS011;12395;42.808;23.408;2023-12-22T12:27:50;6.93;;;2.90;;
24279;SDS011;12395;42.808;23.408;2023-12-22T12:30:26;5.70;;;2.60;;
24279;SDS011;12395;42.808;23.408;2023-12-22T12:39:05;5.72;;;2.92;;
24279;SDS011;12395;42.808;23.408;2023-12-22T12:41:38;5.65;;;2.97;;
24279;SDS011;12395;42.808;23.408;2023-12-22T12:44:06;5.13;;;2.90;;
24279;SDS011;12395;42.808;23.408;2023-12-22T12:46:33;6.15;;;3.28;;
24279;SDS011;12395;42.808;23.408;2023-12-22T12:49:05;7.22;;;3.60;;
24279;SDS011;12395;42.808;23.408;2023-12-22T12:51:40;6.97;;;3.47;;
24279;SDS011;12395;42.808;23.408;2023-12-22T12:54:08;6.43;;;3.00;;
24279;SDS011;12395;42.808;23.408;2023-12-22T12:56:38;6.13;;;3.40;;
24279;SDS011;12395;42.808;23.408;2023-12-22T12:59:11;6.95;;;3.50;;
24279;SDS011;12395;42.808;23.408;2023-12-22T13:01:38;6.78;;;3.33;;
24279;SDS011;12395;42.808;23.408;2023-12-22T13:04:05;7.30;;;3.70;;
24279;SDS011;12395;42.808;23.408;2023-12-22T13:06:31;9.13;;;4.00;;
24279;SDS011;12395;42.808;23.408;2023-12-22T13:08:56;8.50;;;3.83;;
24279;SDS011;12395;42.808;23.408;2023-12-22T13:11:22;6.57;;;3.72;;
24279;SDS011;12395;42.808;23.408;2023-12-22T13:13:49;6.13;;;3.38;;
24279;SDS011;12395;42.808;23.408;2023-12-22T13:16:21;7.57;;;3.65;;
24279;SDS011;12395;42.808;23.408;2023-12-22T13:18:51;7.60;;;3.35;;
24279;SDS011;12395;42.808;23.408;2023-12-22T13:21:17;6.18;;;3.33;;
24279;SDS011;12395;42.808;23.408;2023-12-22T13:23:42;6.57;;;3.47;;
24279;SDS011;12395;42.808;23.408;2023-12-22T13:26:20;8.18;;;3.72;;
24279;SDS011;12395;42.808;23.408;2023-12-22T13:28:46;8.10;;;3.33;;
24279;SDS011;12395;42.808;23.408;2023-12-22T13:31:12;7.05;;;3.60;;
24279;SDS011;12395;42.808;23.408;2023-12-22T13:33:43;7.70;;;3.72;;
24279;SDS011;12395;42.808;23.408;2023-12-22T13:36:09;7.38;;;3.67;;
24279;SDS011;12395;42.808;23.408;2023-12-22T13:38:35;8.20;;;3.80;;
24279;SDS011;12395;42.808;23.408;2023-12-22T13:41:03;7.70;;;4.07;;
24279;SDS011;12395;42.808;23.408;2023-12-22T13:43:31;6.80;;;3.83;;
24279;SDS011;12395;42.808;23.408;2023-12-22T13:45:57;6.72;;;3.50;;
24279;SDS011;12395;42.808;23.408;2023-12-22T13:48:23;7.70;;;3.50;;
24279;SDS011;12395;42.808;23.408;2023-12-22T13:50:59;7.35;;;3.70;;
24279;SDS011;12395;42.808;23.408;2023-12-22T13:53:26;7.93;;;4.20;;
24279;SDS011;12395;42.808;23.408;2023-12-22T13:55:58;9.07;;;4.22;;
24279;SDS011;12395;42.808;23.408;2023-12-22T13:58:25;9.63;;;4.32;;
24279;SDS011;12395;42.808;23.408;2023-12-22T14:00:51;7.95;;;4.45;;
24279;SDS011;12395;42.808;23.408;2023-12-22T14:03:17;8.82;;;4.65;;
24279;SDS011;12395;42.808;23.408;2023-12-22T14:05:46;9.23;;;4.95;;
24279;SDS011;12395;42.808;23.408;2023-12-22T14:08:15;10.77;;;6.38;;
24279;SDS011;12395;42.808;23.408;2023-12-22T14:10:47;7.88;;;4.10;;
24279;SDS011;12395;42.808;23.408;2023-12-22T14:13:16;8.98;;;4.30;;
24279;SDS011;12395;42.808;23.408;2023-12-22T14:15:42;7.55;;;4.18;;
24279;SDS011;12395;42.808;23.408;2023-12-22T14:18:09;9.50;;;4.45;;
24279;SDS011;12395;42.808;23.408;2023-12-22T14:20:34;8.27;;;4.30;;
24279;SDS011;12395;42.808;23.408;2023-12-22T14:22:59;10.02;;;4.50;;
24279;SDS011;12395;42.808;23.408;2023-12-22T14:25:25;10.48;;;5.40;;
24279;SDS011;12395;42.808;23.408;2023-12-22T14:27:52;11.03;;;5.10;;
24279;SDS011;12395;42.808;23.408;2023-12-22T14:30:22;10.18;;;5.57;;
24279;SDS011;12395;42.808;23.408;2023-12-22T14:32:47;9.85;;;5.40;;
24279;SDS011;12395;42.808;23.408;2023-12-22T14:35:13;12.38;;;5.57;;
24279;SDS011;12395;42.808;23.408;2023-12-22T14:37:38;11.02;;;5.53;;
24279;SDS011;12395;42.808;23.408;2023-12-22T14:40:03;11.75;;;5.07;;
24279;SDS011;12395;42.808;23.408;2023-12-22T14:42:29;13.15;;;5.43;;
24279;SDS011;12395;42.808;23.408;2023-12-22T14:44:54;10.15;;;4.70;;
24279;SDS011;12395;42.808;23.408;2023-12-22T14:47:20;9.27;;;4.70;;
24279;SDS011;12395;42.808;23.408;2023-12-22T14:49:45;9.05;;;4.60;;